Time;durP1;ratioP1;P1;durP2;ratioP2;P2;SDS_P1;SDS_P2;PMS_P1;PMS_P2;Temp;Humidity;BMP_temperature;BMP_pressure;BME280_temperature;BME280_humidity;BME280_pressure;Samples;Min_cycle;Max_cycle;Signal;HPM_P1;HPM_P2
2023/03/09 00:01:23;;;;;;;3.78;3.00;;;16.90;57.90;;;;;;5018007;28;20633;-66
2023/03/09 00:04:14;;;;;;;3.30;2.88;;;16.90;57.80;;;;;;5017321;28;20218;-65
2023/03/09 00:07:04;;;;;;;3.30;2.85;;;17.00;57.90;;;;;;5017473;28;20398;-66
2023/03/09 00:09:52;;;;;;;3.10;2.90;;;17.00;57.60;;;;;;5016578;28;20195;-66
2023/03/09 00:12:40;;;;;;;3.40;3.10;;;17.00;57.60;;;;;;5016315;28;20218;-67
2023/03/09 00:15:28;;;;;;;3.10;2.70;;;17.00;57.30;;;;;;5017239;28;20199;-67
2023/03/09 00:18:17;;;;;;;2.80;2.60;;;17.10;57.40;;;;;;5016289;28;20229;-67
2023/03/09 00:21:06;;;;;;;2.88;2.67;;;17.10;57.40;;;;;;5016860;28;20222;-66
2023/03/09 00:23:55;;;;;;;3.58;3.28;;;17.10;56.90;;;;;;5016885;28;20582;-65
2023/03/09 00:26:47;;;;;;;3.05;2.85;;;17.10;56.90;;;;;;5015212;28;20301;-67
2023/03/09 00:29:35;;;;;;;3.45;3.15;;;17.10;56.90;;;;;;5016559;28;20229;-65
2023/03/09 00:32:24;;;;;;;2.70;2.50;;;17.10;57.00;;;;;;5016708;28;20254;-66
2023/03/09 00:35:12;;;;;;;3.67;3.38;;;17.10;56.80;;;;;;5015795;28;20202;-67
2023/03/09 00:38:01;;;;;;;3.20;2.90;;;17.00;56.90;;;;;;5016267;28;20207;-65
2023/03/09 00:40:50;;;;;;;2.75;2.53;;;17.00;57.10;;;;;;5017253;28;20276;-65
2023/03/09 00:43:38;;;;;;;2.65;2.45;;;17.00;57.10;;;;;;5015842;28;20803;-66
2023/03/09 00:46:27;;;;;;;2.72;2.50;;;16.90;57.10;;;;;;5015827;28;20329;-66
2023/03/09 00:49:16;;;;;;;3.78;3.00;;;16.90;57.30;;;;;;5016505;28;20234;-66
2023/03/09 00:52:05;;;;;;;2.25;2.10;;;16.80;57.90;;;;;;5016395;28;20223;-65
2023/03/09 00:54:53;;;;;;;2.60;2.40;;;16.70;58.00;;;;;;5015899;28;20202;-65
2023/03/09 00:57:43;;;;;;;3.03;2.78;;;16.70;58.30;;;;;;5017267;28;20693;-65
2023/03/09 01:00:33;;;;;;;2.42;2.22;;;16.90;69.70;;;;;;5017192;28;20301;-65
2023/03/09 01:03:21;;;;;;;2.40;2.20;;;16.70;58.30;;;;;;5016892;28;20265;-65
2023/03/09 01:06:10;;;;;;;2.97;2.58;;;16.70;58.20;;;;;;5015246;28;20260;-66
2023/03/09 01:08:58;;;;;;;2.50;2.30;;;16.70;58.00;;;;;;5016288;28;20203;-66
2023/03/09 01:11:46;;;;;;;3.20;2.90;;;16.80;58.10;;;;;;5015167;28;20328;-67
2023/03/09 01:14:36;;;;;;;3.28;2.97;;;16.80;58.00;;;;;;5016364;28;20199;-67
2023/03/09 01:17:24;;;;;;;2.60;2.45;;;16.80;57.80;;;;;;5016094;28;20212;-65
2023/03/09 01:20:13;;;;;;;3.22;2.72;;;16.80;57.80;;;;;;5016816;28;20300;-66
2023/03/09 01:23:01;;;;;;;3.80;3.30;;;16.90;57.90;;;;;;5017106;28;20207;-66
2023/03/09 01:25:49;;;;;;;3.08;2.88;;;16.90;57.70;;;;;;5015534;28;20242;-66
2023/03/09 01:28:38;;;;;;;3.30;3.00;;;16.90;57.60;;;;;;5014159;28;20249;-65
2023/03/09 01:31:28;;;;;;;3.03;2.75;;;16.90;57.20;;;;;;5014440;28;20642;-65
2023/03/09 01:34:16;;;;;;;3.47;3.17;;;17.00;57.20;;;;;;5014111;28;20205;-67
2023/03/09 01:37:04;;;;;;;4.63;2.92;;;17.00;57.10;;;;;;5014053;28;20238;-66
2023/03/09 01:39:52;;;;;;;3.45;3.15;;;17.00;57.10;;;;;;5014839;28;20297;-70
2023/03/09 01:42:40;;;;;;;4.53;3.35;;;17.00;57.20;;;;;;5014654;28;20227;-65
2023/03/09 01:46:06;;;;;;;5.00;3.80;;;17.00;57.10;;;;;;5013857;28;20338;-66
2023/03/09 01:49:00;;;;;;;3.50;3.20;;;17.00;57.00;;;;;;5014839;28;20203;-66
2023/03/09 01:51:52;;;;;;;4.00;3.67;;;16.90;57.00;;;;;;5015456;28;20271;-66
2023/03/09 01:54:47;;;;;;;3.50;3.20;;;16.90;57.20;;;;;;5015862;28;20264;-66
2023/03/09 01:57:37;;;;;;;3.53;3.22;;;16.80;57.20;;;;;;5014516;28;20226;-66
2023/03/09 02:00:26;;;;;;;3.08;2.83;;;16.70;58.00;;;;;;5014652;28;20269;-66
2023/03/09 02:03:19;;;;;;;3.65;2.80;;;16.70;58.40;;;;;;5016270;28;20206;-65
2023/03/09 02:06:13;;;;;;;3.13;2.75;;;16.70;58.40;;;;;;5015166;28;20654;-67
2023/03/09 02:09:09;;;;;;;2.92;2.67;;;16.70;58.30;;;;;;5015242;28;20227;-65
2023/03/09 02:11:59;;;;;;;4.40;3.92;;;16.80;58.30;;;;;;5015900;28;20222;-67
2023/03/09 02:14:47;;;;;;;4.68;3.85;;;16.80;58.20;;;;;;5015621;28;20230;-66
2023/03/09 02:17:35;;;;;;;3.13;2.83;;;16.80;58.20;;;;;;5014184;28;20257;-66
2023/03/09 02:20:31;;;;;;;4.20;3.55;;;16.80;58.10;;;;;;5015516;28;20215;-67
2023/03/09 02:23:27;;;;;;;3.53;3.25;;;16.90;58.10;;;;;;5014645;28;20241;-65
2023/03/09 02:26:22;;;;;;;4.20;3.80;;;17.80;58.70;;;;;;5013882;28;20672;-65
2023/03/09 02:29:12;;;;;;;3.65;3.35;;;16.90;57.80;;;;;;5014633;28;20245;-66
2023/03/09 02:34:55;;;;;;;5.75;4.05;;;16.90;57.50;;;;;;5030904;28;20682;-66
2023/03/09 02:37:43;;;;;;;4.78;4.35;;;16.90;57.50;;;;;;5033752;28;20287;-67
2023/03/09 02:40:34;;;;;;;4.22;3.83;;;17.10;68.40;;;;;;5033551;28;20214;-67
2023/03/09 02:43:26;;;;;;;5.25;4.20;;;17.00;57.10;;;;;;5032531;28;20234;-65
2023/03/09 02:46:16;;;;;;;5.45;4.78;;;17.10;57.20;;;;;;5033431;28;20633;-67
2023/03/09 02:49:04;;;;;;;4.85;3.88;;;17.10;57.10;;;;;;5032987;28;20726;-67
2023/03/09 02:51:52;;;;;;;6.93;5.18;;;17.10;57.00;;;;;;5033109;28;20292;-66
2023/03/09 02:54:40;;;;;;;6.68;4.75;;;17.10;57.10;;;;;;5033028;28;20334;-65
2023/03/09 02:57:28;;;;;;;8.80;5.97;;;17.00;56.90;;;;;;5033336;28;20202;-65
2023/03/09 03:00:21;;;;;;;7.70;5.15;;;17.00;56.90;;;;;;5033830;28;20751;-66
2023/03/09 03:03:10;;;;;;;8.35;6.13;;;17.00;57.10;;;;;;5033920;28;20586;-66
2023/03/09 03:05:58;;;;;;;7.20;5.90;;;16.90;57.10;;;;;;5033822;28;20301;-65
2023/03/09 03:08:46;;;;;;;5.68;4.82;;;16.90;57.10;;;;;;5037469;28;20202;-66
2023/03/09 03:11:34;;;;;;;5.15;4.65;;;16.80;57.30;;;;;;5037780;28;20305;-67
2023/03/09 03:14:22;;;;;;;5.00;4.50;;;16.60;58.00;;;;;;5037785;28;20681;-64
2023/03/09 03:17:11;;;;;;;4.65;3.90;;;16.60;58.40;;;;;;5036997;28;20206;-66
2023/03/09 03:20:00;;;;;;;4.47;4.07;;;16.60;58.50;;;;;;5037195;28;20261;-65
2023/03/09 03:22:49;;;;;;;6.93;5.53;;;16.60;58.30;;;;;;5037646;28;20244;-65
2023/03/09 03:25:37;;;;;;;4.15;3.75;;;17.00;58.60;;;;;;5037583;28;20687;-66
2023/03/09 03:28:25;;;;;;;8.73;5.10;;;16.30;58.10;;;;;;5038056;28;20198;-64
2023/03/09 03:31:13;;;;;;;5.72;4.82;;;16.70;58.40;;;;;;5037959;28;20308;-66
2023/03/09 03:34:01;;;;;;;7.20;4.50;;;16.80;58.40;;;;;;5037428;28;20210;-67
2023/03/09 03:36:50;;;;;;;6.22;4.60;;;16.70;58.00;;;;;;5037145;28;20243;-65
2023/03/09 03:39:38;;;;;;;5.72;4.47;;;16.70;57.90;;;;;;5037586;28;20563;-65
2023/03/09 03:42:26;;;;;;;5.90;5.30;;;16.80;57.40;;;;;;5059007;22;20237;-63
2023/03/09 03:45:14;;;;;;;6.80;6.10;;;16.80;57.70;;;;;;5035065;28;20289;-63
2023/03/09 03:48:02;;;;;;;6.30;5.25;;;16.80;57.50;;;;;;5034921;28;20198;-65
2023/03/09 03:50:50;;;;;;;7.63;5.38;;;16.90;57.60;;;;;;5035142;28;20277;-64
2023/03/09 03:53:40;;;;;;;6.22;4.32;;;16.90;57.40;;;;;;5014506;28;20562;-64
2023/03/09 03:56:28;;;;;;;5.90;5.30;;;16.90;57.60;;;;;;5014845;28;20280;-63
2023/03/09 03:59:16;;;;;;;6.68;4.82;;;16.90;57.40;;;;;;5015921;28;20203;-64
2023/03/09 04:02:04;;;;;;;7.38;5.90;;;16.90;57.20;;;;;;5014462;28;20230;-63
2023/03/09 04:04:52;;;;;;;8.82;6.03;;;17.00;57.20;;;;;;5014606;28;20213;-64
2023/03/09 04:07:40;;;;;;;7.82;6.43;;;17.00;57.00;;;;;;5025549;28;20234;-64
2023/03/09 04:10:30;;;;;;;7.18;5.40;;;16.90;57.00;;;;;;5027276;28;20213;-65
2023/03/09 04:13:18;;;;;;;6.85;5.40;;;16.90;57.00;;;;;;5028268;28;20328;-64
2023/03/09 04:16:06;;;;;;;8.68;6.57;;;16.90;57.20;;;;;;5016265;28;20199;-63
2023/03/09 04:18:54;;;;;;;8.07;6.38;;;16.80;57.20;;;;;;5013254;28;20220;-63
2023/03/09 04:21:43;;;;;;;7.50;5.32;;;16.70;57.30;;;;;;5014359;28;20514;-63
2023/03/09 04:24:31;;;;;;;6.72;4.43;;;16.60;58.10;;;;;;5015294;28;20646;-63
2023/03/09 04:27:21;;;;;;;5.68;4.57;;;16.50;58.30;;;;;;5014050;28;20333;-63
2023/03/09 04:30:10;;;;;;;5.85;4.88;;;16.50;59.00;;;;;;5014123;28;20249;-63
2023/03/09 04:32:58;;;;;;;5.57;4.53;;;16.60;58.40;;;;;;5013775;28;20277;-64
2023/03/09 04:35:47;;;;;;;5.30;4.80;;;16.60;58.40;;;;;;5013713;28;20199;-64
2023/03/09 04:38:35;;;;;;;6.28;4.05;;;16.60;58.30;;;;;;5014189;28;20202;-63
2023/03/09 04:41:23;;;;;;;7.45;4.53;;;16.70;58.30;;;;;;5013101;28;20633;-63
2023/03/09 04:44:13;;;;;;;5.28;4.63;;;16.70;58.10;;;;;;5014384;28;20281;-64
2023/03/09 04:47:01;;;;;;;6.60;5.13;;;16.80;58.10;;;;;;5013519;28;20310;-63
2023/03/09 04:49:49;;;;;;;4.18;3.78;;;16.80;57.90;;;;;;5014007;28;20202;-64
2023/03/09 04:52:37;;;;;;;5.13;4.63;;;16.90;57.90;;;;;;5013792;28;20255;-64
2023/03/09 04:55:25;;;;;;;6.60;4.57;;;16.90;57.70;;;;;;5013525;28;20207;-64
2023/03/09 04:58:13;;;;;;;5.25;4.63;;;16.90;57.70;;;;;;5013929;28;20282;-64
2023/03/09 05:01:02;;;;;;;5.82;4.85;;;17.10;68.50;;;;;;5013662;28;20716;-64
2023/03/09 05:03:50;;;;;;;5.70;4.32;;;16.90;57.50;;;;;;5013850;28;20680;-64
2023/03/09 05:06:38;;;;;;;6.28;4.63;;;16.90;57.40;;;;;;5013147;28;20203;-63
2023/03/09 05:09:26;;;;;;;6.88;5.65;;;17.00;57.20;;;;;;5013264;28;20199;-63
2023/03/09 05:12:14;;;;;;;6.03;5.32;;;17.00;57.20;;;;;;5013186;28;20349;-63
2023/03/09 05:15:04;;;;;;;6.15;5.15;;;17.00;57.30;;;;;;5013049;28;20289;-63
2023/03/09 05:17:53;;;;;;;6.63;5.32;;;17.00;57.10;;;;;;5013109;28;20297;-63
2023/03/09 05:20:41;;;;;;;8.07;5.60;;;17.00;57.00;;;;;;5013047;28;20207;-63
2023/03/09 05:23:29;;;;;;;6.00;5.00;;;16.90;56.90;;;;;;5014255;28;20205;-64
2023/03/09 05:26:17;;;;;;;7.22;5.50;;;16.90;56.70;;;;;;5012350;28;20281;-64
2023/03/09 05:29:05;;;;;;;7.05;4.97;;;16.90;56.60;;;;;;5014308;28;20213;-64
2023/03/09 05:31:53;;;;;;;5.68;4.95;;;16.90;56.80;;;;;;5011859;28;20222;-63
2023/03/09 05:34:43;;;;;;;6.07;5.10;;;16.80;56.80;;;;;;5013201;28;20419;-64
2023/03/09 05:37:33;;;;;;;6.07;5.05;;;16.80;57.10;;;;;;5013256;28;20313;-63
2023/03/09 05:40:22;;;;;;;5.95;5.35;;;16.60;57.00;;;;;;5012982;28;20201;-63
2023/03/09 05:43:11;;;;;;;5.07;4.53;;;16.70;57.30;;;;;;5013106;28;20226;-63
2023/03/09 05:45:59;;;;;;;5.70;5.15;;;16.60;57.70;;;;;;5012340;28;20202;-63
2023/03/09 05:48:48;;;;;;;4.78;4.15;;;16.50;58.00;;;;;;5013074;28;20278;-64
2023/03/09 05:51:38;;;;;;;7.72;4.65;;;16.50;58.30;;;;;;5012656;28;20281;-64
2023/03/09 05:54:26;;;;;;;4.32;3.92;;;16.50;58.30;;;;;;5012428;28;20206;-63
2023/03/09 05:57:14;;;;;;;5.70;5.20;;;16.60;58.20;;;;;;5012166;28;20549;-63
2023/03/09 06:00:04;;;;;;;6.13;5.03;;;16.50;58.30;;;;;;5012900;28;20230;-64
2023/03/09 06:02:52;;;;;;;5.85;4.78;;;16.60;58.30;;;;;;5012604;28;20703;-63
2023/03/09 06:05:41;;;;;;;5.63;5.05;;;16.60;58.20;;;;;;5011977;28;20210;-64
2023/03/09 06:08:30;;;;;;;8.48;5.60;;;16.80;58.30;;;;;;5012903;28;20202;-64
2023/03/09 06:11:18;;;;;;;5.47;4.47;;;16.80;75.00;;;;;;5012658;28;20281;-63
2023/03/09 06:14:07;;;;;;;5.15;4.65;;;16.60;57.90;;;;;;5012074;28;20234;-64
2023/03/09 06:16:55;;;;;;;5.38;4.72;;;16.60;57.90;;;;;;5012122;28;20208;-64
2023/03/09 06:19:43;;;;;;;5.47;4.82;;;16.70;58.00;;;;;;5012434;28;20269;-64
2023/03/09 06:22:31;;;;;;;7.32;5.35;;;16.70;57.90;;;;;;5012363;28;20232;-64
2023/03/09 06:25:20;;;;;;;6.20;5.57;;;16.40;57.40;;;;;;5012257;28;20750;-65
2023/03/09 06:28:09;;;;;;;5.93;5.32;;;16.80;57.00;;;;;;5012448;28;20206;-63
2023/03/09 06:30:57;;;;;;;6.30;5.47;;;16.80;57.40;;;;;;5012114;28;20245;-64
2023/03/09 06:33:47;;;;;;;5.72;5.13;;;16.80;57.40;;;;;;5012085;28;20202;-63
2023/03/09 06:36:35;;;;;;;5.82;4.90;;;16.80;57.40;;;;;;5012083;28;20595;-64
2023/03/09 06:39:23;;;;;;;6.03;5.43;;;16.70;57.20;;;;;;5020584;28;20221;-64
2023/03/09 06:42:13;;;;;;;6.47;5.78;;;16.90;57.30;;;;;;5031379;28;20248;-64
2023/03/09 06:45:02;;;;;;;6.90;6.20;;;16.90;57.40;;;;;;5018659;28;20278;-64
2023/03/09 06:47:53;;;;;;;6.15;5.22;;;16.90;57.30;;;;;;5011641;28;20281;-65
2023/03/09 06:50:41;;;;;;;7.90;6.65;;;16.80;57.30;;;;;;5011077;28;20680;-63
2023/03/09 06:53:29;;;;;;;7.32;5.82;;;16.60;57.20;;;;;;5012227;28;20280;-64
2023/03/09 06:56:17;;;;;;;5.80;4.80;;;16.60;57.60;;;;;;5011637;28;20234;-63
2023/03/09 06:59:06;;;;;;;6.47;5.05;;;16.60;58.60;;;;;;5011824;28;20731;-63
2023/03/09 07:01:55;;;;;;;5.70;5.10;;;16.50;58.50;;;;;;5006255;28;20257;-64
2023/03/09 07:04:43;;;;;;;5.70;5.10;;;16.50;58.70;;;;;;5015299;28;20234;-63
2023/03/09 07:07:31;;;;;;;8.25;5.30;;;16.60;59.40;;;;;;5031225;28;20701;-63
2023/03/09 07:10:19;;;;;;;5.63;5.03;;;16.60;58.60;;;;;;5031963;28;20752;-64
2023/03/09 07:13:12;;;;;;;6.20;5.03;;;16.70;58.60;;;;;;5031344;28;20304;-63
2023/03/09 07:16:04;;;;;;;6.57;4.88;;;16.70;58.50;;;;;;5032137;28;20650;-65
2023/03/09 07:18:53;;;;;;;7.63;5.32;;;16.80;58.50;;;;;;5032484;28;20221;-64
2023/03/09 07:21:41;;;;;;;6.93;5.88;;;16.80;58.40;;;;;;5015498;28;20222;-64
2023/03/09 07:24:30;;;;;;;6.55;5.28;;;16.90;58.30;;;;;;5011718;28;20203;-63
2023/03/09 07:27:18;;;;;;;6.00;5.40;;;16.90;58.20;;;;;;5011414;28;20194;-63
2023/03/09 07:30:09;;;;;;;6.43;4.80;;;17.00;58.20;;;;;;5011490;28;20206;-63
2023/03/09 07:32:59;;;;;;;4.88;4.35;;;17.00;58.00;;;;;;5018482;28;20244;-65
2023/03/09 07:35:47;;;;;;;6.38;3.95;;;17.10;58.20;;;;;;5002436;28;20273;-65
2023/03/09 07:38:36;;;;;;;4.72;4.32;;;17.10;58.10;;;;;;5011713;28;20202;-64
2023/03/09 07:41:24;;;;;;;4.45;4.05;;;17.20;58.10;;;;;;5011197;28;20309;-64
2023/03/09 07:44:12;;;;;;;6.38;5.07;;;17.30;58.10;;;;;;5011195;28;20199;-63
2023/03/09 07:47:00;;;;;;;6.60;5.63;;;17.30;57.70;;;;;;5011675;28;20281;-64
2023/03/09 07:49:51;;;;;;;6.43;5.30;;;17.30;57.50;;;;;;5011725;28;20203;-64
2023/03/09 07:52:39;;;;;;;6.15;5.38;;;17.30;57.70;;;;;;5011728;28;20301;-64
2023/03/09 07:55:29;;;;;;;8.48;6.30;;;17.30;57.20;;;;;;5012062;28;20203;-63
2023/03/09 07:58:17;;;;;;;6.75;6.05;;;17.30;57.10;;;;;;5034980;28;20206;-63
2023/03/09 08:01:07;;;;;;;6.95;6.13;;;17.40;67.80;;;;;;5014745;28;20254;-64
2023/03/09 08:03:55;;;;;;;6.20;5.60;;;17.30;57.10;;;;;;5016028;28;20230;-64
2023/03/09 08:06:45;;;;;;;7.43;5.43;;;17.30;57.20;;;;;;5015114;28;20230;-64
2023/03/09 08:09:33;;;;;;;7.05;6.35;;;17.20;56.90;;;;;;5010546;28;20282;-63
2023/03/09 08:12:21;;;;;;;6.05;5.45;;;17.20;57.20;;;;;;5009852;28;20219;-63
2023/03/09 08:15:11;;;;;;;8.20;6.38;;;17.10;57.30;;;;;;5024100;28;20325;-63
2023/03/09 08:18:00;;;;;;;7.40;6.60;;;17.10;57.30;;;;;;5015365;28;20191;-64
2023/03/09 08:20:48;;;;;;;6.25;5.50;;;17.00;57.20;;;;;;5014383;28;20203;-63
2023/03/09 08:23:39;;;;;;;6.43;5.75;;;17.00;57.50;;;;;;5015221;28;20232;-63
2023/03/09 08:26:28;;;;;;;7.40;5.90;;;16.90;57.40;;;;;;5013882;28;20318;-64
2023/03/09 08:29:16;;;;;;;7.97;5.80;;;16.80;57.50;;;;;;5014811;28;20210;-63
2023/03/09 08:32:06;;;;;;;6.22;5.57;;;16.70;57.60;;;;;;5014135;28;20345;-64
2023/03/09 08:34:56;;;;;;;6.70;5.57;;;16.70;59.00;;;;;;5014430;28;20203;-63
2023/03/09 08:37:45;;;;;;;6.18;5.28;;;16.70;59.00;;;;;;5014105;28;20699;-64
2023/03/09 08:40:34;;;;;;;5.32;4.82;;;16.70;59.10;;;;;;5014940;28;20668;-65
2023/03/09 08:43:22;;;;;;;6.03;4.70;;;16.80;58.90;;;;;;5013586;28;20240;-64
2023/03/09 08:46:11;;;;;;;7.97;5.35;;;16.90;58.90;;;;;;5013669;28;20594;-64
2023/03/09 08:49:00;;;;;;;6.53;5.13;;;16.90;75.60;;;;;;5027469;28;20213;-63
2023/03/09 08:51:50;;;;;;;6.88;4.97;;;17.00;59.10;;;;;;5015025;28;20234;-63
2023/03/09 08:54:38;;;;;;;7.10;5.30;;;17.10;59.00;;;;;;5007269;28;20199;-64
2023/03/09 08:57:28;;;;;;;7.40;5.43;;;17.20;59.00;;;;;;5005600;28;20589;-64
2023/03/09 09:00:17;;;;;;;6.97;5.03;;;17.40;58.80;;;;;;5012818;28;20226;-64
2023/03/09 09:03:05;;;;;;;7.47;4.68;;;17.60;58.60;;;;;;5000016;28;20222;-63
2023/03/09 09:05:54;;;;;;;6.15;5.00;;;17.70;58.20;;;;;;4997305;28;20196;-64
2023/03/09 09:08:43;;;;;;;6.63;5.45;;;17.90;58.40;;;;;;5001295;28;20198;-63
2023/03/09 09:11:32;;;;;;;5.68;4.90;;;18.00;58.10;;;;;;5014095;28;20223;-64
2023/03/09 09:14:22;;;;;;;5.82;5.00;;;18.10;58.00;;;;;;5014693;28;20281;-64
2023/03/09 09:17:11;;;;;;;5.57;4.82;;;18.20;57.90;;;;;;5014661;28;20245;-63
2023/03/09 09:19:59;;;;;;;5.95;4.53;;;18.20;57.60;;;;;;5012083;28;20218;-64
2023/03/09 09:22:48;;;;;;;6.13;4.18;;;18.30;57.60;;;;;;4994293;28;20262;-63
2023/03/09 09:25:36;;;;;;;5.30;4.72;;;18.30;57.60;;;;;;5006399;28;20278;-63
2023/03/09 09:28:24;;;;;;;6.25;5.07;;;18.30;57.50;;;;;;5020743;28;20290;-64
2023/03/09 09:31:18;;;;;;;5.30;4.43;;;18.30;72.30;;;;;;5032455;28;20195;-64
2023/03/09 09:34:07;;;;;;;5.43;4.90;;;18.30;57.50;;;;;;5044116;28;20209;-63
2023/03/09 09:36:55;;;;;;;4.68;4.18;;;18.30;57.40;;;;;;5016420;28;20225;-64
2023/03/09 09:39:44;;;;;;;5.32;4.70;;;18.20;57.40;;;;;;5030072;28;20203;-65
2023/03/09 09:42:35;;;;;;;6.30;4.93;;;18.20;57.60;;;;;;5015777;28;20229;-63
2023/03/09 09:45:30;;;;;;;6.00;5.15;;;18.30;57.40;;;;;;5009102;28;20218;-63
2023/03/09 09:48:22;;;;;;;5.53;5.03;;;18.20;57.30;;;;;;5007824;28;20219;-64
2023/03/09 09:51:26;;;;;;;7.03;5.57;;;18.20;72.40;;;;;;5006587;28;20269;-64
2023/03/09 09:54:23;;;;;;;5.15;4.60;;;18.10;57.30;;;;;;5009081;28;20288;-64
2023/03/09 09:57:16;;;;;;;6.85;5.55;;;18.20;74.50;;;;;;5038720;23;20229;-70
2023/03/09 10:00:08;;;;;;;5.38;4.75;;;18.10;58.30;;;;;;5073636;28;20212;-69
2023/03/09 10:03:09;;;;;;;5.28;4.75;;;18.10;58.40;;;;;;5072701;28;20250;-68
2023/03/09 10:06:05;;;;;;;5.20;4.60;;;18.10;58.50;;;;;;5073473;28;20197;-69
2023/03/09 10:08:56;;;;;;;5.35;4.82;;;18.20;58.40;;;;;;5066602;28;20216;-66
2023/03/09 10:11:46;;;;;;;7.57;5.10;;;18.30;58.30;;;;;;5070237;28;20212;-71
2023/03/09 10:14:39;;;;;;;5.32;4.20;;;18.40;58.40;;;;;;5070681;28;20208;-73
2023/03/09 10:17:32;;;;;;;7.00;5.10;;;18.50;58.00;;;;;;5072849;28;20220;-71
2023/03/09 10:20:26;;;;;;;6.13;5.28;;;18.60;57.90;;;;;;5072473;28;20232;-71
2023/03/09 10:23:22;;;;;;;5.18;4.63;;;18.70;57.70;;;;;;5070733;28;20642;-75
2023/03/09 10:26:23;;;;;;;6.38;4.85;;;18.90;57.60;;;;;;5071470;28;20201;-72
2023/03/09 10:29:19;;;;;;;7.47;5.18;;;19.00;57.50;;;;;;5062362;28;20197;-69
2023/03/09 10:32:16;;;;;;;6.85;5.25;;;19.00;57.30;;;;;;5050921;28;20211;-70
2023/03/09 10:35:17;;;;;;;5.68;4.97;;;19.10;57.20;;;;;;5051975;28;20733;-70
2023/03/09 10:38:05;;;;;;;6.18;4.25;;;19.20;57.10;;;;;;5066492;28;20227;-73
2023/03/09 10:40:56;;;;;;;7.00;5.45;;;19.30;57.00;;;;;;5071924;28;20199;-71
2023/03/09 10:43:45;;;;;;;5.82;4.30;;;19.40;56.90;;;;;;5051687;28;20248;-69
2023/03/09 10:46:58;;;;;;;5.60;5.10;;;19.70;69.50;;;;;;5051028;28;20208;-72
2023/03/09 10:50:09;;;;;;;5.28;4.78;;;19.50;56.60;;;;;;5055430;28;20200;-68
2023/03/09 10:53:29;;;;;;;5.28;4.78;;;19.50;56.50;;;;;;5071412;28;20207;-69
2023/03/09 10:56:21;;;;;;;6.13;5.15;;;19.60;56.50;;;;;;5070492;28;20219;-68
2023/03/09 10:59:15;;;;;;;6.13;5.45;;;19.70;56.60;;;;;;5070784;28;20254;-72
2023/03/09 11:02:27;;;;;;;5.50;5.00;;;19.70;56.30;;;;;;5071281;28;20689;-67
2023/03/09 11:05:20;;;;;;;6.03;5.22;;;19.80;56.30;;;;;;5069970;28;20226;-75
2023/03/09 11:08:23;;;;;;;4.90;4.50;;;19.80;56.20;;;;;;5069313;28;20235;-67
2023/03/09 11:11:19;;;;;;;5.50;4.80;;;19.90;56.20;;;;;;5069950;28;20811;-68
2023/03/09 11:14:22;;;;;;;5.22;4.72;;;19.90;56.20;;;;;;5069446;28;20685;-68
2023/03/09 11:17:27;;;;;;;5.47;4.60;;;19.90;56.80;;;;;;5064876;28;20258;-71
2023/03/09 11:20:31;;;;;;;5.78;5.18;;;19.90;56.00;;;;;;5065900;28;20218;-70
2023/03/09 11:23:27;;;;;;;6.32;5.03;;;19.90;56.10;;;;;;5057519;28;20209;-69
2023/03/09 11:26:19;;;;;;;8.25;5.80;;;19.90;56.10;;;;;;5070361;28;20575;-70
2023/03/09 11:29:20;;;;;;;6.78;5.50;;;19.90;56.10;;;;;;5072269;28;20205;-72
2023/03/09 11:32:09;;;;;;;6.15;5.53;;;19.80;56.10;;;;;;5073808;28;20204;-74
2023/03/09 11:34:59;;;;;;;6.47;5.88;;;19.70;56.10;;;;;;5065062;28;20200;-70
2023/03/09 11:37:52;;;;;;;5.80;5.25;;;19.70;56.20;;;;;;5074455;28;20224;-71
2023/03/09 11:40:42;;;;;;;7.50;6.03;;;19.70;56.10;;;;;;5073797;28;20699;-71
2023/03/09 11:43:37;;;;;;;7.03;4.97;;;19.70;56.10;;;;;;5074456;28;20214;-72
2023/03/09 11:46:26;;;;;;;9.50;5.93;;;19.70;56.00;;;;;;5073165;28;20207;-70
2023/03/09 11:49:19;;;;;;;6.00;5.35;;;19.70;56.10;;;;;;5074077;28;20675;-73
2023/03/09 11:52:08;;;;;;;7.25;5.63;;;19.70;56.00;;;;;;5074702;28;20283;-74
2023/03/09 11:54:59;;;;;;;5.53;5.03;;;19.70;56.00;;;;;;5073595;28;20573;-70
2023/03/09 11:57:51;;;;;;;6.65;5.07;;;19.70;55.90;;;;;;5074510;28;20642;-68
2023/03/09 12:00:45;;;;;;;5.93;5.32;;;19.90;56.00;;;;;;5073331;28;20204;-69
2023/03/09 12:03:40;;;;;;;5.15;4.70;;;19.90;55.90;;;;;;5072982;28;20302;-73
2023/03/09 12:06:44;;;;;;;5.80;5.20;;;19.90;55.80;;;;;;5073709;28;20196;-69
2023/03/09 12:09:47;;;;;;;5.57;5.05;;;20.00;55.70;;;;;;5073689;28;20200;-67
2023/03/09 12:12:42;;;;;;;5.65;4.88;;;19.90;55.60;;;;;;5074138;28;20287;-71
2023/03/09 12:15:36;;;;;;;6.22;5.50;;;20.00;55.80;;;;;;5073178;28;20286;-74
2023/03/09 12:18:30;;;;;;;11.90;5.75;;;20.00;55.90;;;;;;5074450;28;20250;-69
2023/03/09 12:21:29;;;;;;;8.85;4.88;;;20.10;55.70;;;;;;5072838;28;20200;-71
2023/03/09 12:24:27;;;;;;;6.70;5.47;;;20.10;55.60;;;;;;5074278;28;20223;-67
2023/03/09 12:27:18;;;;;;;8.45;5.95;;;20.10;55.70;;;;;;5074202;28;20606;-68
2023/03/09 12:30:20;;;;;;;6.63;5.50;;;20.10;55.70;;;;;;5073764;28;20279;-72
2023/03/09 12:33:11;;;;;;;8.20;5.50;;;20.10;55.60;;;;;;5073711;28;20375;-73
2023/03/09 12:36:00;;;;;;;6.53;5.65;;;20.20;55.70;;;;;;5073829;28;20322;-71
2023/03/09 12:39:29;;;;;;;6.28;5.25;;;20.20;55.70;;;;;;5073352;28;20235;-73
2023/03/09 12:42:36;;;;;;;7.05;5.30;;;20.20;55.60;;;;;;5073551;28;20202;-72
2023/03/09 12:45:30;;;;;;;6.72;5.40;;;20.30;55.50;;;;;;5072526;28;20711;-73
2023/03/09 12:48:24;;;;;;;5.45;4.88;;;20.30;55.50;;;;;;5073100;28;20225;-69
2023/03/09 12:51:19;;;;;;;6.30;5.28;;;20.40;55.50;;;;;;5073679;28;20208;-69
2023/03/09 12:54:20;;;;;;;9.13;5.47;;;20.40;55.50;;;;;;5072693;28;20270;-68
2023/03/09 12:57:20;;;;;;;6.80;5.70;;;20.40;55.40;;;;;;5072731;28;20311;-69
2023/03/09 13:00:29;;;;;;;6.03;5.10;;;20.50;55.40;;;;;;5069117;28;20224;-69
2023/03/09 13:03:22;;;;;;;7.15;6.07;;;20.50;55.30;;;;;;5070147;28;20254;-71
2023/03/09 13:06:27;;;;;;;7.70;5.45;;;20.50;55.20;;;;;;5073312;28;20303;-70
2023/03/09 13:09:22;;;;;;;6.95;5.60;;;20.50;55.20;;;;;;5073372;28;20870;-69
2023/03/09 13:12:17;;;;;;;5.30;4.72;;;20.50;55.20;;;;;;5072236;28;20342;-70
2023/03/09 13:15:23;;;;;;;5.82;5.07;;;20.50;55.20;;;;;;5070462;28;20669;-69
2023/03/09 13:18:22;;;;;;;6.05;5.00;;;20.50;55.20;;;;;;5071340;28;20228;-68
2023/03/09 13:21:40;;;;;;;5.75;4.65;;;20.50;55.30;;;;;;5070945;28;20293;-70
2023/03/09 13:24:37;;;;;;;5.30;4.80;;;20.50;55.30;;;;;;5071687;28;20205;-71
2023/03/09 13:27:27;;;;;;;6.45;5.68;;;20.50;55.20;;;;;;5071873;28;20217;-68
2023/03/09 13:30:20;;;;;;;6.78;4.90;;;20.50;55.10;;;;;;5071295;28;20281;-68
2023/03/09 13:33:16;;;;;;;5.85;5.35;;;20.50;55.10;;;;;;5060224;28;20225;-68
2023/03/09 13:36:13;;;;;;;8.13;5.25;;;20.50;55.00;;;;;;5072459;28;20547;-71
2023/03/09 13:39:07;;;;;;;6.38;5.78;;;20.50;55.10;;;;;;5072761;28;20204;-68
2023/03/09 13:41:57;;;;;;;6.05;5.40;;;20.40;55.00;;;;;;5072888;28;20249;-68
2023/03/09 13:44:48;;;;;;;6.20;5.60;;;20.30;55.00;;;;;;5072358;28;20219;-67
2023/03/09 13:47:36;;;;;;;8.00;5.50;;;20.30;55.20;;;;;;5072527;28;20261;-68
2023/03/09 13:50:27;;;;;;;5.95;5.45;;;20.30;55.40;;;;;;5072751;28;20200;-70
2023/03/09 13:53:22;;;;;;;5.68;4.82;;;20.30;55.40;;;;;;5071243;28;20278;-74
2023/03/09 13:56:15;;;;;;;6.43;5.18;;;20.30;55.40;;;;;;5072509;28;20736;-73
2023/03/09 13:59:04;;;;;;;6.25;5.13;;;20.30;55.40;;;;;;5071904;28;20296;-73
2023/03/09 14:01:52;;;;;;;6.22;4.93;;;20.30;55.50;;;;;;5071783;28;20749;-68
2023/03/09 14:04:51;;;;;;;5.75;4.75;;;20.30;55.30;;;;;;5070529;28;20290;-70
2023/03/09 14:07:45;;;;;;;5.50;4.75;;;20.30;55.40;;;;;;5071637;28;20235;-69
2023/03/09 14:10:36;;;;;;;5.88;5.28;;;20.40;55.40;;;;;;5071803;28;20249;-73
2023/03/09 14:13:27;;;;;;;5.50;5.00;;;20.40;55.30;;;;;;5070056;28;20201;-70
2023/03/09 14:16:18;;;;;;;6.32;5.22;;;20.50;55.20;;;;;;5071174;28;20200;-68
2023/03/09 14:19:06;;;;;;;8.15;5.80;;;20.50;55.00;;;;;;5070674;28;20199;-71
2023/03/09 14:21:56;;;;;;;5.70;5.10;;;20.60;55.10;;;;;;5071183;28;20215;-68
2023/03/09 14:24:47;;;;;;;6.55;5.95;;;20.60;55.00;;;;;;5068783;28;20612;-70
2023/03/09 14:27:36;;;;;;;6.53;4.82;;;20.70;55.00;;;;;;5071109;28;20224;-69
2023/03/09 14:30:44;;;;;;;7.40;6.63;;;20.70;54.80;;;;;;5069105;28;20665;-74
2023/03/09 14:33:33;;;;;;;7.43;6.25;;;20.60;54.80;;;;;;5071451;28;20225;-69
2023/03/09 14:36:22;;;;;;;6.90;6.20;;;20.70;54.90;;;;;;5069015;28;20197;-68
2023/03/09 14:39:23;;;;;;;6.55;5.43;;;20.70;55.00;;;;;;5070507;28;20204;-73
2023/03/09 14:42:24;;;;;;;7.22;5.78;;;20.70;54.90;;;;;;5071140;28;20230;-70
2023/03/09 14:45:24;;;;;;;8.27;6.68;;;20.60;54.90;;;;;;5071396;28;20203;-71
2023/03/09 14:48:13;;;;;;;6.80;5.40;;;20.60;54.90;;;;;;5071391;28;20227;-70
2023/03/09 14:51:03;;;;;;;6.05;5.47;;;20.60;54.90;;;;;;5071025;28;20189;-70
2023/03/09 14:53:53;;;;;;;7.70;6.53;;;20.60;54.90;;;;;;5069495;28;20574;-72
2023/03/09 14:56:41;;;;;;;7.22;6.43;;;20.60;63.80;;;;;;5070430;28;20669;-74